Time;durP1;ratioP1;P1;durP2;ratioP2;P2;SDS_P1;SDS_P2;PMS_P1;PMS_P2;Temp;Humidity;BMP_temperature;BMP_pressure;BME280_temperature;BME280_humidity;BME280_pressure;Samples;Min_cycle;Max_cycle;Signal;HPM_P1;HPM_P2
2023/01/22 00:00:29;;;;;;;3.65;1.30;;;3.90;69.40;;;;;;7399481;19;19925;-77
2023/01/22 00:02:55;;;;;;;3.10;1.02;;;3.90;68.90;;;;;;7399209;19;19994;-76
2023/01/22 00:05:20;;;;;;;4.88;1.30;;;4.00;69.00;;;;;;7405913;19;19918;-76
2023/01/22 00:07:46;;;;;;;2.90;1.02;;;3.80;68.40;;;;;;7409759;19;19911;-75
2023/01/22 00:10:12;;;;;;;3.28;1.00;;;3.90;68.80;;;;;;7400569;19;19914;-75
2023/01/22 00:12:38;;;;;;;3.33;0.98;;;3.70;68.90;;;;;;7397565;19;19915;-77
2023/01/22 00:15:05;;;;;;;4.00;0.85;;;3.90;68.90;;;;;;7396989;19;20540;-76
2023/01/22 00:17:31;;;;;;;2.50;0.73;;;3.90;68.40;;;;;;7409557;19;19946;-76
2023/01/22 00:19:57;;;;;;;3.17;0.90;;;3.90;68.60;;;;;;7406135;19;19911;-75
2023/01/22 00:22:22;;;;;;;2.67;0.70;;;3.90;68.50;;;;;;7408237;19;20278;-76
2023/01/22 00:24:50;;;;;;;3.65;0.88;;;3.80;67.70;;;;;;7410625;19;20687;-76
2023/01/22 00:27:15;;;;;;;2.78;0.77;;;3.80;68.10;;;;;;7409038;19;19918;-75
2023/01/22 00:29:41;;;;;;;3.40;0.80;;;3.80;67.90;;;;;;7411478;19;19952;-75
2023/01/22 00:32:07;;;;;;;2.65;0.90;;;3.80;68.40;;;;;;7405565;19;20345;-76
2023/01/22 00:34:33;;;;;;;2.58;0.73;;;3.80;68.20;;;;;;7408470;19;19918;-73
2023/01/22 00:37:00;;;;;;;3.22;1.05;;;3.70;68.50;;;;;;7409198;19;19919;-76
2023/01/22 00:39:26;;;;;;;3.55;0.68;;;3.80;68.40;;;;;;7386820;19;19931;-75
2023/01/22 00:41:52;;;;;;;2.00;0.65;;;3.80;68.50;;;;;;7408905;19;20338;-75
2023/01/22 00:44:18;;;;;;;2.35;0.68;;;3.70;67.90;;;;;;7407606;19;19942;-74
2023/01/22 00:46:43;;;;;;;2.22;0.80;;;3.70;67.70;;;;;;7409360;19;19910;-75
2023/01/22 00:49:10;;;;;;;3.38;1.02;;;3.70;67.00;;;;;;7407085;19;19935;-74
2023/01/22 00:51:38;;;;;;;2.75;0.63;;;3.80;66.50;;;;;;7377908;19;20418;-74
2023/01/22 00:54:04;;;;;;;2.40;0.65;;;3.90;66.30;;;;;;7409448;19;20327;-75
2023/01/22 00:56:29;;;;;;;2.40;0.77;;;4.00;66.80;;;;;;7410226;19;19948;-75
2023/01/22 00:58:55;;;;;;;2.63;0.70;;;4.00;67.10;;;;;;7407442;19;20014;-75
2023/01/22 01:01:21;;;;;;;2.85;0.90;;;4.10;67.00;;;;;;7406423;19;19919;-74
2023/01/22 01:03:46;;;;;;;3.08;0.70;;;4.00;67.60;;;;;;7408786;19;20006;-75
2023/01/22 01:06:18;;;;;;;2.97;0.75;;;3.90;68.00;;;;;;7407267;19;19914;-77
2023/01/22 01:08:46;;;;;;;2.38;0.90;;;3.70;68.20;;;;;;7408435;19;19922;-75
2023/01/22 01:11:21;;;;;;;3.05;0.70;;;3.60;68.60;;;;;;7406340;19;19931;-76
2023/01/22 01:13:48;;;;;;;4.00;0.80;;;3.50;68.50;;;;;;7406431;19;19971;-75
2023/01/22 01:16:34;;;;;;;2.70;0.70;;;3.50;69.10;;;;;;7409055;19;19954;-76
2023/01/22 01:19:04;;;;;;;2.97;0.82;;;3.50;69.00;;;;;;7408956;19;19922;-76
2023/01/22 01:21:31;;;;;;;2.75;1.10;;;3.40;69.40;;;;;;7407384;19;19923;-76
2023/01/22 01:23:59;;;;;;;3.03;0.98;;;3.50;69.60;;;;;;7407813;19;19918;-75
2023/01/22 01:26:25;;;;;;;3.30;0.80;;;3.60;69.40;;;;;;7354796;19;20403;-75
2023/01/22 01:28:51;;;;;;;3.63;1.13;;;3.60;69.60;;;;;;7406687;19;19931;-76
2023/01/22 01:31:19;;;;;;;4.13;1.23;;;3.50;70.00;;;;;;7408276;19;19918;-75
2023/01/22 01:33:45;;;;;;;;;;;3.40;70.30;;;;;;7411399;19;20275;-75
2023/01/22 01:36:13;;;;;;;3.35;1.00;;;3.30;70.40;;;;;;7408453;19;19931;-75
2023/01/22 01:38:39;;;;;;;2.97;0.98;;;3.40;71.10;;;;;;7408662;19;20548;-76
2023/01/22 01:41:06;;;;;;;3.75;1.15;;;3.40;71.10;;;;;;7404084;19;19910;-76
2023/01/22 01:43:31;;;;;;;2.58;0.70;;;3.40;70.90;;;;;;7405534;19;19983;-75
2023/01/22 01:45:59;;;;;;;3.10;1.00;;;3.30;71.60;;;;;;7408653;19;19928;-75
2023/01/22 01:48:40;;;;;;;3.33;1.02;;;3.20;71.70;;;;;;7407955;19;19970;-75
2023/01/22 01:51:06;;;;;;;3.83;1.40;;;3.20;71.80;;;;;;7386713;19;19934;-76
2023/01/22 01:53:32;;;;;;;2.40;0.80;;;3.30;72.70;;;;;;7407433;19;19978;-75
2023/01/22 01:56:01;;;;;;;2.70;0.98;;;3.40;72.60;;;;;;7409121;19;19914;-74
2023/01/22 01:58:30;;;;;;;5.53;1.30;;;3.50;72.50;;;;;;7407202;19;19914;-75
2023/01/22 02:01:02;;;;;;;3.78;1.05;;;3.60;72.30;;;;;;7409298;19;19938;-75
2023/01/22 02:03:28;;;;;;;2.42;0.93;;;3.50;72.50;;;;;;7408219;19;19919;-75
2023/01/22 02:05:55;;;;;;;3.38;1.10;;;3.60;72.10;;;;;;7408177;19;19914;-75
2023/01/22 02:08:21;;;;;;;4.90;1.13;;;3.50;71.60;;;;;;7404793;19;19923;-74
2023/01/22 02:10:47;;;;;;;4.63;1.02;;;3.60;71.40;;;;;;7407663;19;20350;-75
2023/01/22 02:13:19;;;;;;;2.33;0.82;;;3.60;71.00;;;;;;7405422;19;19926;-75
2023/01/22 02:15:45;;;;;;;3.60;0.77;;;3.70;70.40;;;;;;7409159;19;20353;-75
2023/01/22 02:18:12;;;;;;;3.05;1.00;;;3.60;70.20;;;;;;7408513;19;19985;-74
2023/01/22 02:20:49;;;;;;;1.65;0.52;;;3.60;69.80;;;;;;7409132;19;19923;-75
2023/01/22 02:23:15;;;;;;;1.88;0.50;;;3.50;69.70;;;;;;7407032;19;19925;-76
2023/01/22 02:25:41;;;;;;;2.03;0.70;;;3.50;70.00;;;;;;7372777;19;19919;-75
2023/01/22 02:28:07;;;;;;;3.08;0.95;;;3.60;69.50;;;;;;7402775;19;20243;-75
2023/01/22 02:30:32;;;;;;;2.63;0.73;;;3.70;68.60;;;;;;7408375;19;19907;-75
2023/01/22 02:32:58;;;;;;;2.33;0.88;;;3.90;68.40;;;;;;7402971;19;20441;-76
2023/01/22 02:35:24;;;;;;;2.13;0.70;;;3.90;68.40;;;;;;7404001;19;19918;-76
2023/01/22 02:37:49;;;;;;;2.65;0.85;;;4.00;68.20;;;;;;7403167;19;19990;-75
2023/01/22 02:40:15;;;;;;;2.50;0.63;;;3.90;68.40;;;;;;7403692;19;20603;-75
2023/01/22 02:42:41;;;;;;;2.20;0.70;;;3.90;68.60;;;;;;7407407;19;19911;-75
2023/01/22 02:45:07;;;;;;;2.22;0.77;;;3.90;68.60;;;;;;7405154;19;19907;-75
2023/01/22 02:47:37;;;;;;;2.58;0.63;;;3.90;68.60;;;;;;7383722;19;19960;-76
2023/01/22 02:50:03;;;;;;;6.35;1.38;;;3.90;68.70;;;;;;7405001;19;19911;-75
2023/01/22 02:52:29;;;;;;;2.75;0.68;;;3.80;68.80;;;;;;7406762;19;19932;-76
2023/01/22 02:54:55;;;;;;;2.67;0.82;;;3.90;68.70;;;;;;7408165;19;19910;-76
2023/01/22 02:57:21;;;;;;;4.55;1.00;;;3.90;68.80;;;;;;7404572;19;19918;-75
2023/01/22 02:59:48;;;;;;;3.00;1.13;;;3.90;69.30;;;;;;7408207;19;19922;-76
2023/01/22 03:02:14;;;;;;;2.78;0.93;;;3.80;69.70;;;;;;7350425;19;19974;-75
2023/01/22 03:04:40;;;;;;;1.98;0.82;;;3.80;69.90;;;;;;7406378;19;19919;-75
2023/01/22 03:07:05;;;;;;;4.00;1.02;;;3.90;70.10;;;;;;7403544;19;19920;-76
2023/01/22 03:09:31;;;;;;;3.25;0.88;;;3.80;70.40;;;;;;7405729;19;19926;-75
2023/01/22 03:11:57;;;;;;;2.70;0.82;;;3.80;69.80;;;;;;7404988;19;19934;-75
2023/01/22 03:22:37;;;;;;;2.25;0.82;;;3.50;70.70;;;;;;7407618;19;19922;-75
2023/01/22 03:25:03;;;;;;;2.97;0.90;;;3.40;70.90;;;;;;7405941;19;19911;-75
2023/01/22 03:27:30;;;;;;;3.38;0.77;;;3.40;71.20;;;;;;7408862;19;19929;-75
2023/01/22 03:29:57;;;;;;;3.58;1.02;;;3.30;71.40;;;;;;7405471;19;19957;-77
2023/01/22 03:32:24;;;;;;;2.40;0.93;;;3.20;72.00;;;;;;7404692;19;20394;-75
2023/01/22 03:34:50;;;;;;;4.57;0.82;;;3.20;72.20;;;;;;7404552;19;19938;-76
2023/01/22 03:37:16;;;;;;;2.95;0.90;;;3.10;71.90;;;;;;7402953;19;19929;-76
2023/01/22 03:39:42;;;;;;;2.28;0.73;;;3.10;71.90;;;;;;7408356;19;19911;-75
2023/01/22 03:42:08;;;;;;;2.63;0.90;;;3.10;72.00;;;;;;7404339;19;19934;-75
2023/01/22 03:44:34;;;;;;;3.95;0.80;;;3.10;71.90;;;;;;7403917;19;20733;-74
2023/01/22 03:47:00;;;;;;;1.80;0.70;;;3.00;72.10;;;;;;7406022;19;19910;-76
2023/01/22 03:49:25;;;;;;;3.17;0.98;;;3.10;72.30;;;;;;7401799;19;19927;-75
2023/01/22 03:51:51;;;;;;;2.42;0.80;;;3.00;72.10;;;;;;7406868;19;19923;-75
2023/01/22 03:54:17;;;;;;;4.68;0.93;;;2.90;72.50;;;;;;7350177;19;20319;-76
2023/01/22 03:56:43;;;;;;;3.45;1.17;;;2.90;72.80;;;;;;7403833;19;19988;-74
2023/01/22 03:59:09;;;;;;;4.45;1.42;;;2.90;72.50;;;;;;7381356;19;19929;-75
2023/01/22 04:01:35;;;;;;;3.92;1.00;;;2.90;72.70;;;;;;7401634;19;20257;-75
2023/01/22 04:04:02;;;;;;;4.00;0.95;;;2.90;73.00;;;;;;7405220;19;19911;-75
2023/01/22 04:06:29;;;;;;;4.13;1.13;;;3.00;72.60;;;;;;7403582;19;20322;-76
2023/01/22 04:08:55;;;;;;;4.40;1.02;;;3.00;72.50;;;;;;7402377;19;19926;-75
2023/01/22 04:11:22;;;;;;;2.40;0.88;;;2.90;72.40;;;;;;7406024;19;19951;-75
2023/01/22 04:13:48;;;;;;;3.13;1.10;;;3.10;72.40;;;;;;7403961;19;19928;-75
2023/01/22 04:16:14;;;;;;;2.03;0.75;;;3.10;71.70;;;;;;7351391;19;19974;-75
2023/01/22 04:18:41;;;;;;;2.67;0.85;;;3.00;72.50;;;;;;7404235;19;19926;-74
2023/01/22 04:21:08;;;;;;;2.58;0.93;;;3.10;72.10;;;;;;7400456;19;19919;-75
2023/01/22 04:23:34;;;;;;;2.90;1.10;;;3.00;72.10;;;;;;7401784;19;20380;-75
2023/01/22 04:26:00;;;;;;;2.33;0.80;;;2.90;72.20;;;;;;7403791;19;19918;-74
2023/01/22 04:28:25;;;;;;;2.70;1.10;;;2.90;72.40;;;;;;7380712;19;19924;-75
2023/01/22 04:30:53;;;;;;;2.83;1.05;;;2.80;71.70;;;;;;7404784;19;20345;-75
2023/01/22 04:33:19;;;;;;;3.20;1.50;;;2.80;72.10;;;;;;7402678;19;19915;-75
2023/01/22 04:35:49;;;;;;;5.07;1.13;;;2.80;72.20;;;;;;7403841;19;19925;-74
2023/01/22 04:38:15;;;;;;;4.38;1.20;;;3.00;72.80;;;;;;7402533;19;19907;-75
2023/01/22 04:40:41;;;;;;;3.72;1.00;;;2.90;71.80;;;;;;7403514;19;19923;-75
2023/01/22 04:43:08;;;;;;;3.53;1.00;;;2.90;71.90;;;;;;7402841;19;19918;-75
2023/01/22 04:45:34;;;;;;;3.83;0.90;;;3.00;72.50;;;;;;7403648;19;20248;-75
2023/01/22 04:48:00;;;;;;;2.15;0.73;;;3.00;72.40;;;;;;7401277;19;19929;-74
2023/01/22 04:50:29;;;;;;;3.17;0.80;;;3.10;72.80;;;;;;7406179;19;19935;-75
2023/01/22 04:52:56;;;;;;;3.05;0.95;;;3.00;73.00;;;;;;7411242;19;20299;-75
2023/01/22 04:55:22;;;;;;;2.53;0.82;;;3.00;72.50;;;;;;7354472;19;20040;-75
2023/01/22 04:57:48;;;;;;;3.38;1.17;;;3.20;71.50;;;;;;7412169;19;19950;-76
2023/01/22 05:00:15;;;;;;;3.17;0.93;;;3.40;71.40;;;;;;7407528;19;19915;-75
2023/01/22 05:02:41;;;;;;;3.65;0.95;;;3.50;71.60;;;;;;7411285;19;19914;-76
2023/01/22 05:05:08;;;;;;;2.63;0.82;;;3.30;71.30;;;;;;7407823;19;19933;-75
2023/01/22 05:07:34;;;;;;;3.33;1.02;;;3.30;71.10;;;;;;7408714;19;19922;-75
2023/01/22 05:10:00;;;;;;;3.47;0.80;;;3.20;71.30;;;;;;7409749;19;19988;-76
2023/01/22 05:12:28;;;;;;;2.97;0.80;;;3.20;71.30;;;;;;7356043;19;19925;-74
2023/01/22 05:14:54;;;;;;;2.75;0.70;;;3.20;71.10;;;;;;7409359;19;19915;-75
2023/01/22 05:17:20;;;;;;;3.85;1.10;;;3.00;71.50;;;;;;7355776;19;19939;-75
2023/01/22 05:19:46;;;;;;;3.08;0.90;;;2.90;71.90;;;;;;7412431;19;19925;-75
2023/01/22 05:22:12;;;;;;;2.40;0.80;;;2.80;72.20;;;;;;7407713;19;19915;-76
2023/01/22 05:24:38;;;;;;;5.10;0.93;;;2.80;73.00;;;;;;7410038;19;19923;-75
2023/01/22 05:27:03;;;;;;;3.35;0.95;;;2.80;72.40;;;;;;7403626;19;19915;-76
2023/01/22 05:29:29;;;;;;;5.53;1.05;;;2.90;72.30;;;;;;7406260;19;20342;-76
2023/01/22 05:31:57;;;;;;;3.38;1.20;;;2.90;73.00;;;;;;7406794;19;19911;-74
2023/01/22 05:34:23;;;;;;;3.33;1.00;;;2.80;72.80;;;;;;7406944;19;20049;-74
2023/01/22 05:36:49;;;;;;;3.00;1.10;;;2.80;72.90;;;;;;7409966;19;20264;-75
2023/01/22 05:39:16;;;;;;;3.13;1.30;;;2.80;73.20;;;;;;7406357;19;19918;-75
2023/01/22 05:41:43;;;;;;;3.53;1.25;;;2.70;73.40;;;;;;7411168;19;20252;-75
2023/01/22 05:44:13;;;;;;;3.95;1.38;;;2.60;73.80;;;;;;7355807;19;19946;-74
2023/01/22 05:46:39;;;;;;;3.78;1.20;;;2.40;74.00;;;;;;7410016;19;20260;-76
2023/01/22 05:49:06;;;;;;;7.45;1.63;;;2.40;74.60;;;;;;7407756;19;20266;-74
2023/01/22 05:51:32;;;;;;;4.43;1.52;;;2.20;74.90;;;;;;7408430;19;19930;-74
2023/01/22 05:53:58;;;;;;;3.63;1.52;;;2.10;75.40;;;;;;7405355;19;19927;-74
2023/01/22 05:56:23;;;;;;;4.40;1.73;;;2.00;75.60;;;;;;7404855;19;20303;-74
2023/01/22 05:58:50;;;;;;;4.72;1.85;;;2.00;75.70;;;;;;7409314;19;19947;-74
2023/01/22 06:01:16;;;;;;;4.53;1.30;;;2.00;76.20;;;;;;7404581;19;20266;-74
2023/01/22 06:03:42;;;;;;;4.20;1.65;;;2.10;76.10;;;;;;7407982;19;19989;-75
2023/01/22 06:06:11;;;;;;;4.25;1.77;;;2.00;76.00;;;;;;7404301;19;20347;-74
2023/01/22 06:08:37;;;;;;;5.00;1.75;;;2.00;76.00;;;;;;7407684;19;20393;-75
2023/01/22 06:11:07;;;;;;;3.38;1.30;;;2.00;75.80;;;;;;7390858;19;20453;-75
2023/01/22 06:13:33;;;;;;;3.80;1.05;;;1.90;76.00;;;;;;7407355;19;19910;-75
2023/01/22 06:16:00;;;;;;;3.70;1.27;;;1.90;76.10;;;;;;7406547;19;20263;-75
2023/01/22 06:18:26;;;;;;;3.75;1.30;;;1.90;76.10;;;;;;7407318;19;19975;-75
2023/01/22 06:20:58;;;;;;;6.72;1.75;;;1.90;76.20;;;;;;7407946;19;19914;-75
2023/01/22 06:23:28;;;;;;;3.92;1.25;;;1.90;76.30;;;;;;7406455;19;19919;-75
2023/01/22 06:25:55;;;;;;;4.47;1.02;;;2.10;75.70;;;;;;7405251;19;19922;-75
2023/01/22 06:28:21;;;;;;;3.65;0.90;;;2.40;75.00;;;;;;7355202;19;19923;-76
2023/01/22 06:30:47;;;;;;;2.45;1.05;;;2.60;73.90;;;;;;7409102;19;19921;-75
2023/01/22 06:33:13;;;;;;;3.13;0.85;;;2.90;73.00;;;;;;7407407;19;19911;-75
2023/01/22 06:35:39;;;;;;;4.50;1.23;;;2.90;72.50;;;;;;7385056;19;19922;-75
2023/01/22 06:38:05;;;;;;;2.80;1.05;;;2.90;72.70;;;;;;7405376;19;19918;-75
2023/01/22 06:40:31;;;;;;;3.25;0.90;;;2.90;72.70;;;;;;7405589;19;19922;-74
2023/01/22 06:43:00;;;;;;;3.90;1.10;;;2.90;73.10;;;;;;7405868;19;19925;-75
2023/01/22 06:45:26;;;;;;;2.28;0.88;;;2.80;73.90;;;;;;7404232;19;19920;-75
2023/01/22 06:47:52;;;;;;;2.63;1.05;;;2.90;72.60;;;;;;7401190;19;19986;-75
2023/01/22 06:50:18;;;;;;;2.65;0.80;;;2.80;72.90;;;;;;7403806;19;19935;-75
2023/01/22 06:52:47;;;;;;;3.97;1.17;;;2.70;73.20;;;;;;7407408;19;19906;-75
2023/01/22 06:55:13;;;;;;;3.03;1.17;;;2.70;73.80;;;;;;7353508;19;19942;-76
2023/01/22 06:57:40;;;;;;;3.70;1.10;;;2.70;74.10;;;;;;7408898;19;20280;-74
2023/01/22 07:00:07;;;;;;;3.50;1.00;;;2.70;73.80;;;;;;7406333;19;19915;-76
2023/01/22 07:02:33;;;;;;;3.15;1.10;;;2.60;73.40;;;;;;7407996;19;19996;-74
2023/01/22 07:04:58;;;;;;;2.85;0.98;;;2.50;73.90;;;;;;7407073;19;19927;-75
2023/01/22 07:07:24;;;;;;;2.22;0.80;;;2.50;74.10;;;;;;7406215;19;19929;-75
2023/01/22 07:09:50;;;;;;;2.83;0.98;;;2.40;74.30;;;;;;7406463;19;19918;-74
2023/01/22 07:12:16;;;;;;;2.70;0.95;;;2.40;74.60;;;;;;7402769;19;19930;-76
2023/01/22 07:14:42;;;;;;;2.22;0.60;;;2.50;74.60;;;;;;7408113;19;19922;-76
2023/01/22 07:17:08;;;;;;;2.67;0.70;;;2.40;74.30;;;;;;7405605;19;19942;-75
2023/01/22 07:19:34;;;;;;;2.85;1.00;;;2.40;74.00;;;;;;7410190;19;19922;-74
2023/01/22 07:22:00;;;;;;;4.80;0.80;;;2.50;74.00;;;;;;7406407;19;20564;-76
2023/01/22 07:24:26;;;;;;;4.45;1.00;;;2.50;73.50;;;;;;7406672;19;19931;-75
2023/01/22 07:26:52;;;;;;;3.53;1.10;;;2.60;73.50;;;;;;7405602;19;20278;-76
2023/01/22 07:29:18;;;;;;;3.83;1.17;;;2.80;73.80;;;;;;7404624;19;20284;-74
2023/01/22 07:31:46;;;;;;;3.25;0.70;;;2.90;74.30;;;;;;7406404;19;19922;-74
2023/01/22 07:34:11;;;;;;;2.60;0.80;;;2.90;74.20;;;;;;7405634;19;19942;-74
2023/01/22 07:36:37;;;;;;;3.20;0.90;;;2.80;73.80;;;;;;7407674;19;19922;-76
2023/01/22 07:39:04;;;;;;;3.35;0.65;;;3.00;73.40;;;;;;7407241;19;19934;-75
2023/01/22 07:41:31;;;;;;;1.45;0.73;;;3.10;72.50;;;;;;7404644;19;19923;-75
2023/01/22 07:43:59;;;;;;;;;;;3.40;71.90;;;;;;7367446;19;19928;-76
2023/01/22 07:46:26;;;;;;;3.33;1.15;;;3.50;71.40;;;;;;7404555;19;20291;-76
2023/01/22 07:48:51;;;;;;;2.03;0.77;;;3.60;71.70;;;;;;7405894;19;19938;-75
2023/01/22 07:51:17;;;;;;;3.05;0.85;;;3.70;71.00;;;;;;7405608;19;19911;-76
2023/01/22 07:53:43;;;;;;;1.98;0.52;;;3.80;70.70;;;;;;7407551;19;19914;-76
2023/01/22 07:56:09;;;;;;;3.25;0.70;;;3.80;70.50;;;;;;7406404;19;19948;-77
2023/01/22 07:58:35;;;;;;;3.60;0.93;;;3.90;70.90;;;;;;7409186;19;19918;-75
2023/01/22 08:01:05;;;;;;;2.38;0.73;;;3.90;71.30;;;;;;7407730;19;19926;-75
2023/01/22 08:03:32;;;;;;;4.47;0.68;;;3.90;71.00;;;;;;7401426;19;20338;-74
2023/01/22 08:05:59;;;;;;;2.50;0.80;;;3.90;70.70;;;;;;7406613;19;19922;-75
2023/01/22 08:08:25;;;;;;;3.08;0.93;;;4.20;70.00;;;;;;7381559;19;19926;-74
2023/01/22 08:10:51;;;;;;;2.25;0.63;;;4.40;69.20;;;;;;7403485;19;19922;-74
2023/01/22 08:13:17;;;;;;;2.47;0.68;;;4.60;69.50;;;;;;7405846;19;19946;-75
2023/01/22 08:15:43;;;;;;;2.67;0.60;;;4.60;69.30;;;;;;7404773;19;20026;-76
2023/01/22 08:18:10;;;;;;;1.88;0.85;;;4.80;69.30;;;;;;7400141;19;19915;-76
2023/01/22 08:20:36;;;;;;;2.53;0.80;;;4.90;68.60;;;;;;7405794;19;19926;-78
2023/01/22 08:23:02;;;;;;;2.83;1.00;;;4.90;68.50;;;;;;7403652;19;20339;-77
2023/01/22 08:25:28;;;;;;;2.47;1.00;;;4.90;68.60;;;;;;7409789;19;20334;-76
2023/01/22 08:27:54;;;;;;;2.95;0.77;;;5.00;68.80;;;;;;7409297;19;19922;-76
2023/01/22 08:30:21;;;;;;;1.98;0.70;;;5.00;68.60;;;;;;7379764;19;20250;-76
2023/01/22 08:32:49;;;;;;;3.22;0.95;;;5.90;67.70;;;;;;7410570;19;19922;-75
2023/01/22 08:35:15;;;;;;;2.60;0.80;;;7.80;65.90;;;;;;7407829;19;19919;-76
2023/01/22 08:37:42;;;;;;;2.05;0.82;;;9.20;63.80;;;;;;7412084;19;20263;-76
2023/01/22 08:40:09;;;;;;;2.35;1.00;;;9.80;62.40;;;;;;7408638;19;19963;-76
2023/01/22 08:42:35;;;;;;;2.70;1.20;;;10.80;61.40;;;;;;7408545;19;19906;-79
2023/01/22 08:45:01;;;;;;;2.38;1.17;;;11.20;60.80;;;;;;7415939;19;19907;-81
2023/01/22 08:47:27;;;;;;;3.38;1.35;;;11.00;60.30;;;;;;7413170;19;19952;-77
2023/01/22 08:49:52;;;;;;;3.38;0.93;;;11.30;60.00;;;;;;7418499;19;19921;-79
2023/01/22 08:52:19;;;;;;;2.05;0.88;;;11.80;59.30;;;;;;7416828;19;20007;-76
2023/01/22 08:54:45;;;;;;;3.42;1.20;;;11.80;59.20;;;;;;7411371;19;19919;-76
2023/01/22 08:57:11;;;;;;;2.90;1.42;;;11.60;59.40;;;;;;7410339;19;19914;-77
2023/01/22 08:59:37;;;;;;;2.50;1.00;;;11.20;59.50;;;;;;7410280;19;19942;-75
2023/01/22 09:02:04;;;;;;;3.22;0.95;;;11.20;59.40;;;;;;7413010;19;20326;-75
2023/01/22 09:04:30;;;;;;;2.28;0.80;;;11.60;59.30;;;;;;7392249;19;20002;-76
2023/01/22 09:06:56;;;;;;;2.72;1.42;;;11.30;59.40;;;;;;7411816;19;19935;-75
2023/01/22 09:09:22;;;;;;;2.88;1.02;;;11.00;59.90;;;;;;7408988;19;19935;-76
2023/01/22 09:11:48;;;;;;;2.78;0.90;;;10.50;59.50;;;;;;7409602;19;19938;-77
2023/01/22 09:14:14;;;;;;;2.72;0.98;;;9.70;59.90;;;;;;7409160;19;19919;-75
2023/01/22 09:16:40;;;;;;;2.75;0.70;;;9.40;60.50;;;;;;7408064;19;19922;-75
2023/01/22 09:19:06;;;;;;;2.88;0.82;;;8.90;61.40;;;;;;7400746;19;19910;-76
2023/01/22 09:21:32;;;;;;;2.53;0.82;;;8.50;62.00;;;;;;7407185;19;20259;-76
2023/01/22 09:23:59;;;;;;;2.40;0.90;;;8.10;62.30;;;;;;7411284;19;20353;-77
2023/01/22 09:26:25;;;;;;;2.33;0.85;;;8.00;62.50;;;;;;7412031;19;19938;-77
2023/01/22 09:28:51;;;;;;;2.50;1.05;;;8.10;63.00;;;;;;7410856;19;19994;-77
2023/01/22 09:31:17;;;;;;;2.92;1.13;;;8.20;62.50;;;;;;7409009;19;19988;-75
2023/01/22 09:33:43;;;;;;;3.45;0.77;;;8.30;62.50;;;;;;7408794;19;20239;-77
2023/01/22 09:36:14;;;;;;;2.60;0.77;;;8.30;62.60;;;;;;7406717;19;19939;-77
2023/01/22 09:38:41;;;;;;;2.47;1.23;;;8.20;62.30;;;;;;7411230;19;19911;-76
2023/01/22 09:41:17;;;;;;;3.42;1.15;;;8.20;62.60;;;;;;7406686;19;19950;-75
2023/01/22 09:43:54;;;;;;;3.17;0.90;;;8.20;63.20;;;;;;7413861;19;19929;-75
2023/01/22 09:46:44;;;;;;;4.65;1.10;;;8.50;62.90;;;;;;7407894;19;19971;-76
2023/01/22 09:49:16;;;;;;;4.78;1.13;;;8.90;61.90;;;;;;7411541;19;19926;-76
2023/01/22 09:51:55;;;;;;;3.95;1.38;;;9.40;61.80;;;;;;7410181;19;19925;-76
2023/01/22 09:54:21;;;;;;;;;;;9.70;61.60;;;;;;7410456;19;19998;-77
2023/01/22 09:56:52;;;;;;;3.78;1.42;;;9.60;61.60;;;;;;7410644;19;19922;-77
2023/01/22 09:59:25;;;;;;;3.75;1.67;;;9.60;61.60;;;;;;7408527;19;19987;-76
2023/01/22 10:01:59;;;;;;;4.15;1.83;;;9.90;61.50;;;;;;7401409;19;19918;-78
2023/01/22 10:04:28;;;;;;;3.22;1.27;;;10.40;61.20;;;;;;7408266;19;19910;-77
2023/01/22 10:06:57;;;;;;;4.50;1.50;;;10.60;61.10;;;;;;7404357;19;19955;-75
2023/01/22 10:09:23;;;;;;;4.35;1.60;;;10.60;60.80;;;;;;7402077;19;19918;-76
2023/01/22 10:11:55;;;;;;;3.80;1.58;;;10.70;60.70;;;;;;7407730;19;19911;-76
2023/01/22 10:14:25;;;;;;;5.20;1.33;;;10.80;60.30;;;;;;7408109;19;19914;-76
2023/01/22 10:16:51;;;;;;;3.38;1.50;;;11.10;60.90;;;;;;7407698;19;19917;-75
2023/01/22 10:19:24;;;;;;;4.30;1.67;;;11.40;60.00;;;;;;7335141;19;20007;-76
2023/01/22 10:21:59;;;;;;;3.92;1.90;;;11.40;60.00;;;;;;7390566;19;19921;-77
2023/01/22 10:24:25;;;;;;;3.67;1.63;;;11.50;60.00;;;;;;7396093;19;19942;-77
2023/01/22 10:26:54;;;;;;;3.75;1.40;;;11.80;59.60;;;;;;7391679;19;19918;-76
2023/01/22 10:29:25;;;;;;;3.47;1.40;;;12.00;59.50;;;;;;7391654;19;19925;-78
2023/01/22 10:31:54;;;;;;;3.83;1.33;;;11.90;59.70;;;;;;7404482;19;19922;-76
2023/01/22 10:34:36;;;;;;;3.08;1.50;;;11.80;59.10;;;;;;7396808;19;20332;-76
2023/01/22 10:37:28;;;;;;;3.63;1.75;;;12.20;59.50;;;;;;7411581;19;19917;-78
2023/01/22 10:39:58;;;;;;;4.30;2.05;;;12.10;59.00;;;;;;7406572;19;19945;-78
2023/01/22 10:42:28;;;;;;;4.35;1.83;;;11.60;59.40;;;;;;7401681;19;20011;-78
2023/01/22 10:45:10;;;;;;;3.70;1.50;;;11.50;60.10;;;;;;7399907;19;20255;-77
2023/01/22 10:47:36;;;;;;;4.13;1.80;;;11.80;59.80;;;;;;7396385;19;19974;-76
2023/01/22 10:50:11;;;;;;;4.18;1.67;;;11.90;59.80;;;;;;7394611;19;19910;-75
2023/01/22 10:52:53;;;;;;;4.60;1.50;;;11.90;60.00;;;;;;7405971;19;20369;-76
2023/01/22 10:55:29;;;;;;;4.78;2.15;;;11.10;59.70;;;;;;7352613;19;19926;-76
2023/01/22 10:58:06;;;;;;;3.85;1.90;;;11.10;60.40;;;;;;7404678;19;19915;-76
2023/01/22 11:00:34;;;;;;;3.70;1.50;;;11.10;60.40;;;;;;7387864;19;19906;-77
2023/01/22 11:03:00;;;;;;;4.80;1.50;;;11.40;60.50;;;;;;7399323;19;20271;-76
2023/01/22 11:05:32;;;;;;;4.80;2.67;;;11.40;60.40;;;;;;7402155;19;19978;-75
2023/01/22 11:08:14;;;;;;;4.75;1.73;;;12.00;60.40;;;;;;7401527;19;20010;-77
2023/01/22 11:11:03;;;;;;;3.55;1.58;;;12.30;60.10;;;;;;7373230;19;20023;-78
2023/01/22 11:13:50;;;;;;;4.35;1.77;;;11.90;59.60;;;;;;7382760;19;20449;-78
2023/01/22 11:16:22;;;;;;;3.45;1.63;;;11.80;60.20;;;;;;7400112;19;19927;-76
2023/01/22 11:19:02;;;;;;;3.63;1.75;;;11.80;60.30;;;;;;7401813;19;19932;-76
2023/01/22 11:21:49;;;;;;;3.28;1.48;;;12.30;59.80;;;;;;7402685;19;20346;-77
2023/01/22 11:24:26;;;;;;;4.65;1.98;;;12.40;59.30;;;;;;7396727;19;19974;-76
2023/01/22 11:27:32;;;;;;;5.88;1.63;;;12.60;58.90;;;;;;7365806;19;19923;-76
2023/01/22 11:30:35;;;;;;;3.80;1.58;;;12.10;59.20;;;;;;7406854;19;19925;-76
2023/01/22 11:33:13;;;;;;;3.17;1.48;;;12.40;59.00;;;;;;7401774;19;19926;-77
2023/01/22 11:36:16;;;;;;;2.80;1.60;;;12.40;59.00;;;;;;7404886;19;19918;-77
2023/01/22 11:39:16;;;;;;;3.70;1.83;;;12.70;58.80;;;;;;7399842;19;19918;-76
2023/01/22 11:42:03;;;;;;;4.82;1.77;;;12.90;59.10;;;;;;7403567;19;20426;-78
2023/01/22 11:44:42;;;;;;;5.25;2.30;;;13.10;58.90;;;;;;7406058;19;19922;-78
2023/01/22 11:47:39;;;;;;;3.90;1.73;;;13.80;57.70;;;;;;7404960;19;19923;-76
2023/01/22 11:50:27;;;;;;;3.30;1.90;;;13.20;58.10;;;;;;7404005;19;19924;-77
2023/01/22 11:53:23;;;;;;;4.60;1.85;;;14.10;57.90;;;;;;7403771;19;20341;-75
2023/01/22 11:55:58;;;;;;;4.45;2.15;;;14.40;56.80;;;;;;7403372;19;19975;-76
2023/01/22 11:58:34;;;;;;;3.90;1.50;;;15.10;57.10;;;;;;7405219;19;19941;-76
2023/01/22 12:01:06;;;;;;;4.15;1.80;;;15.50;56.00;;;;;;7409993;19;19915;-77
2023/01/22 12:03:48;;;;;;;4.82;2.47;;;15.60;56.60;;;;;;7411296;19;19923;-76
2023/01/22 12:06:32;;;;;;;5.50;2.45;;;16.10;56.50;;;;;;7408584;19;19935;-76
2023/01/22 12:09:33;;;;;;;7.00;2.10;;;17.10;55.80;;;;;;7412180;19;20327;-77
2023/01/22 12:12:07;;;;;;;4.78;2.28;;;17.30;54.80;;;;;;7408650;19;19922;-76
2023/01/22 12:15:02;;;;;;;3.88;1.90;;;18.00;54.90;;;;;;7412571;19;19914;-76
2023/01/22 12:17:52;;;;;;;5.05;2.15;;;18.20;54.30;;;;;;7383422;19;20297;-77
2023/01/22 12:20:29;;;;;;;3.60;2.10;;;18.90;53.70;;;;;;7408516;19;19918;-76
2023/01/22 12:23:02;;;;;;;4.68;2.38;;;19.60;53.20;;;;;;7412484;19;19922;-77
2023/01/22 12:25:54;;;;;;;7.32;2.75;;;20.10;52.80;;;;;;7411809;19;19947;-76
2023/01/22 12:28:36;;;;;;;5.10;2.22;;;20.50;52.20;;;;;;7410236;19;19918;-76
2023/01/22 12:31:23;;;;;;;4.30;2.00;;;20.90;51.60;;;;;;7408192;19;19918;-76
2023/01/22 12:33:48;;;;;;;4.13;2.08;;;20.70;51.30;;;;;;7410108;19;19922;-78
2023/01/22 12:36:19;;;;;;;4.35;2.38;;;20.80;51.70;;;;;;7374788;19;20040;-76
2023/01/22 12:39:27;;;;;;;4.35;2.53;;;21.00;51.00;;;;;;7410522;19;19919;-76
2023/01/22 12:42:21;;;;;;;4.03;2.38;;;20.90;51.20;;;;;;7408057;19;20010;-77
2023/01/22 12:45:01;;;;;;;3.80;1.95;;;21.00;50.60;;;;;;7407953;19;19911;-76
2023/01/22 12:47:49;;;;;;;4.57;2.10;;;21.30;49.90;;;;;;7409145;19;19919;-75
2023/01/22 12:50:23;;;;;;;5.32;2.55;;;20.80;50.10;;;;;;7408597;19;19910;-76
2023/01/22 12:53:03;;;;;;;3.90;2.30;;;20.50;50.10;;;;;;7408948;19;19914;-77
2023/01/22 12:55:41;;;;;;;6.18;1.85;;;20.20;50.00;;;;;;7406317;19;20335;-76
2023/01/22 12:58:21;;;;;;;3.35;1.88;;;20.30;49.50;;;;;;7408893;19;19938;-76
2023/01/22 13:01:03;;;;;;;4.85;2.05;;;20.20;49.40;;;;;;7410236;19;19923;-75
2023/01/22 13:03:29;;;;;;;4.43;2.13;;;20.70;49.30;;;;;;7410480;19;19926;-77
2023/01/22 13:05:56;;;;;;;3.80;2.05;;;21.00;49.40;;;;;;7410504;19;19919;-77
2023/01/22 13:08:42;;;;;;;4.10;2.00;;;20.80;48.10;;;;;;7410452;19;20035;-76
2023/01/22 13:11:25;;;;;;;4.75;2.20;;;22.00;47.90;;;;;;7410308;19;19926;-77
2023/01/22 13:13:55;;;;;;;6.20;1.75;;;21.80;46.90;;;;;;7407534;19;19939;-76
2023/01/22 13:16:32;;;;;;;4.00;1.88;;;23.10;46.50;;;;;;7407194;19;19923;-75